Time;durP1;ratioP1;P1;durP2;ratioP2;P2;SDS_P1;SDS_P2;PMS_P1;PMS_P2;Temp;Humidity;BMP_temperature;BMP_pressure;BME280_temperature;BME280_humidity;BME280_pressure;Samples;Min_cycle;Max_cycle;Signal;HPM_P1;HPM_P2
2022/09/04 00:00:55;;;;;;;;;;;;;;;;;;5010551;28;19957;-78
2022/09/04 00:03:20;;;;;;;;;;;;;;;;;;5010316;28;19918;-79
2022/09/04 00:05:45;;;;;;;;;;;;;;;;;;4995460;28;20436;-81
2022/09/04 00:08:11;;;;;;;;;;;;;;;;;;4978240;28;20345;-81
2022/09/04 00:10:36;;;;;;;;;;;;;;;;;;4994141;28;19913;-80
2022/09/04 00:13:01;;;;;;;;;;;;;;;;;;4995067;28;20409;-80
2022/09/04 00:15:27;;;;;;;;;;;;;;;;;;4995347;28;19913;-80
2022/09/04 00:17:52;;;;;;;;;;;;;;;;;;4994179;28;19918;-79
2022/09/04 00:20:18;;;;;;;;;;;;;;;;;;5010034;28;20354;-79
2022/09/04 00:22:43;;;;;;;;;;;;;;;;;;4995020;28;19984;-79
2022/09/04 00:25:09;;;;;;;;;;;;;;;;;;4994029;28;19924;-79
2022/09/04 00:27:42;;;;;;;;;;;;;;;;;;4994160;28;19917;-78
2022/09/04 00:30:07;;;;;;;;;;;;;;;;;;5010777;28;19914;-80
2022/09/04 00:32:33;;;;;;;;;;;;;;;;;;4993975;28;19963;-78
2022/09/04 00:34:59;;;;;;;;;;;;;;;;;;4995383;28;19948;-78
2022/09/04 00:37:24;;;;;;;;;;;;;;;;;;5010215;28;19921;-81
2022/09/04 00:39:49;;;;;;;;;;;;;;;;;;4994797;28;19968;-83
2022/09/04 00:42:15;;;;;;;;;;;;;;;;;;4993065;28;19918;-83
2022/09/04 00:44:40;;;;;;;;;;;;;;;;;;4993603;28;19918;-84
2022/09/04 00:47:06;;;;;;;;;;;;;;;;;;5009366;28;19914;-83
2022/09/04 00:49:31;;;;;;;;;;;;;;;;;;4993529;28;19910;-83
2022/09/04 00:51:56;;;;;;;;;;;;;;;;;;4993604;28;19914;-82
2022/09/04 00:54:22;;;;;;;;;;;;;;;;;;4994444;28;20189;-82
2022/09/04 00:56:47;;;;;;;;;;;;;;;;;;5009532;28;19914;-82
2022/09/04 00:59:13;;;;;;;;;;;;;;;;;;5009646;28;19921;-82
2022/09/04 01:01:39;;;;;;;;;;;;;;;;;;5009378;28;20049;-83
2022/09/04 01:04:04;;;;;;;;;;;;;;;;;;4994176;28;20024;-82
2022/09/04 01:06:29;;;;;;;;;;;;;;;;;;4993025;28;19917;-84
2022/09/04 01:08:55;;;;;;;;;;;;;;;;;;4994251;28;20400;-83
2022/09/04 01:11:20;;;;;;;;;;;;;;;;;;4993996;28;19910;-83
2022/09/04 01:13:45;;;;;;;;;;;;;;;;;;5009257;28;19914;-83
2022/09/04 01:16:12;;;;;;;;;;;;;;;;;;4994215;28;20000;-84
2022/09/04 01:18:37;;;;;;;;;;;;;;;;;;5009206;28;20461;-84
2022/09/04 01:21:05;;;;;;;;;;;;;;;;;;4994032;28;19991;-84
2022/09/04 01:23:30;;;;;;;;;;;;;;;;;;4993727;28;19918;-84
2022/09/04 01:25:56;;;;;;;;;;;;;;;;;;4993985;28;19968;-84
2022/09/04 01:28:21;;;;;;;;;;;;;;;;;;4992791;28;19992;-83
2022/09/04 01:30:47;;;;;;;;;;;;;;;;;;4993830;28;20372;-83
2022/09/04 01:33:12;;;;;;;;;;;;;;;;;;4976542;28;20348;-83
2022/09/04 01:35:37;;;;;;;;;;;;;;;;;;4993886;28;19956;-83
2022/09/04 01:38:03;;;;;;;;;;;;;;;;;;4992572;28;19918;-84
2022/09/04 01:40:28;;;;;;;;;;;;;;;;;;4992550;28;19914;-83
2022/09/04 01:42:53;;;;;;;;;;;;;;;;;;4993267;28;20317;-83
2022/09/04 01:45:19;;;;;;;;;;;;;;;;;;5025043;28;20385;-80
2022/09/04 01:47:44;;;;;;;;;;;;;;;;;;4992357;28;20412;-78
2022/09/04 01:50:09;;;;;;;;;;;;;;;;;;4993607;28;20297;-81
2022/09/04 01:52:38;;;;;;;;;;;;;;;;;;4993181;28;20052;-79
2022/09/04 01:55:03;;;;;;;;;;;;;;;;;;4993484;28;19920;-79
2022/09/04 01:57:29;;;;;;;;;;;;;;;;;;4993487;28;20008;-80
2022/09/04 01:59:54;;;;;;;;;;;;;;;;;;4993397;28;19913;-81
2022/09/04 02:02:19;;;;;;;;;;;;;;;;;;5024871;28;19914;-80
2022/09/04 02:04:45;;;;;;;;;;;;;;;;;;4991917;28;19917;-80
2022/09/04 02:07:10;;;;;;;;;;;;;;;;;;4992072;28;19914;-79
2022/09/04 02:09:36;;;;;;;;;;;;;;;;;;5008500;28;19914;-81
2022/09/04 02:12:02;;;;;;;;;;;;;;;;;;4976098;28;19914;-81
2022/09/04 02:14:27;;;;;;;;;;;;;;;;;;4993070;28;20009;-81
2022/09/04 02:16:55;;;;;;;;;;;;;;;;;;4993120;28;19917;-80
2022/09/04 02:19:20;;;;;;;;;;;;;;;;;;4991809;28;20293;-82
2022/09/04 02:21:45;;;;;;;;;;;;;;;;;;5024720;28;19913;-80
2022/09/04 02:24:11;;;;;;;;;;;;;;;;;;5024376;28;20451;-80
2022/09/04 02:26:36;;;;;;;;;;;;;;;;;;4993121;28;19917;-78
2022/09/04 02:29:02;;;;;;;;;;;;;;;;;;4991823;28;19914;-80
2022/09/04 02:31:28;;;;;;;;;;;;;;;;;;4991778;28;20392;-80
2022/09/04 02:33:53;;;;;;;;;;;;;;;;;;4991577;28;19972;-83
2022/09/04 02:36:19;;;;;;;;;;;;;;;;;;4993105;28;19918;-81
2022/09/04 02:38:44;;;;;;;;;;;;;;;;;;4991844;28;19921;-78
2022/09/04 02:41:10;;;;;;;;;;;;;;;;;;4992761;28;20297;-79
2022/09/04 02:43:35;;;;;;;;;;;;;;;;;;4991584;28;19918;-79
2022/09/04 02:46:01;;;;;;;;;;;;;;;;;;5002079;28;19920;-79
2022/09/04 02:48:26;;;;;;;;;;;;;;;;;;5012482;28;19972;-80
2022/09/04 02:50:52;;;;;;;;;;;;;;;;;;5012318;28;19914;-78
2022/09/04 02:53:17;;;;;;;;;;;;;;;;;;5012054;28;19959;-78
2022/09/04 02:55:43;;;;;;;;;;;;;;;;;;5012349;28;19921;-77
2022/09/04 02:58:10;;;;;;;;;;;;;;;;;;4994945;28;20007;-78
2022/09/04 03:00:38;;;;;;;;;;;;;;;;;;5012361;28;20052;-79
2022/09/04 03:03:03;;;;;;;;;;;;;;;;;;5011893;28;19972;-78
2022/09/04 03:05:28;;;;;;;;;;;;;;;;;;5015860;28;19968;-79
2022/09/04 03:07:54;;;;;;;;;;;;;;;;;;5016116;28;19971;-85
2022/09/04 03:10:19;;;;;;;;;;;;;;;;;;5016176;28;19914;-86
2022/09/04 03:12:44;;;;;;;;;;;;;;;;;;4998736;28;19913;-84
2022/09/04 03:15:10;;;;;;;;;;;;;;;;;;4998820;28;20443;-84
2022/09/04 03:17:35;;;;;;;;;;;;;;;;;;5015727;28;19909;-83
2022/09/04 03:20:00;;;;;;;;;;;;;;;;;;5014418;28;19914;-85
2022/09/04 03:22:26;;;;;;;;;;;;;;;;;;5014216;28;19917;-86
2022/09/04 03:24:51;;;;;;;;;;;;;;;;;;5014230;28;19921;-85
2022/09/04 03:27:17;;;;;;;;;;;;;;;;;;5014294;28;19960;-87
2022/09/04 03:29:43;;;;;;;;;;;;;;;;;;5013006;28;20454;-86
2022/09/04 03:32:08;;;;;;;;;;;;;;;;;;5014241;28;19996;-85
2022/09/04 03:34:33;;;;;;;;;;;;;;;;;;5015062;28;20300;-78
2022/09/04 03:36:59;;;;;;;;;;;;;;;;;;5015829;28;19916;-84
2022/09/04 03:39:24;;;;;;;;;;;;;;;;;;4998485;28;20311;-81
2022/09/04 03:41:50;;;;;;;;;;;;;;;;;;5014351;28;19918;-81
2022/09/04 03:44:17;;;;;;;;;;;;;;;;;;5015368;28;20559;-80
2022/09/04 03:46:42;;;;;;;;;;;;;;;;;;5015757;28;19913;-80
2022/09/04 03:49:07;;;;;;;;;;;;;;;;;;5014401;28;20288;-80
2022/09/04 03:51:33;;;;;;;;;;;;;;;;;;5015595;28;19971;-83
2022/09/04 03:53:58;;;;;;;;;;;;;;;;;;5015260;28;20367;-82
2022/09/04 03:56:23;;;;;;;;;;;;;;;;;;5014313;28;20391;-82
2022/09/04 03:58:49;;;;;;;;;;;;;;;;;;5014475;28;20148;-83
2022/09/04 04:01:16;;;;;;;;;;;;;;;;;;4981808;28;19913;-78
2022/09/04 04:03:42;;;;;;;;;;;;;;;;;;5013904;28;19918;-81
2022/09/04 04:06:07;;;;;;;;;;;;;;;;;;5015580;28;19940;-78
2022/09/04 04:08:32;;;;;;;;;;;;;;;;;;5013887;28;20296;-79
2022/09/04 04:10:58;;;;;;;;;;;;;;;;;;5014038;28;19992;-79
2022/09/04 04:13:23;;;;;;;;;;;;;;;;;;4997476;28;19913;-79
2022/09/04 04:15:49;;;;;;;;;;;;;;;;;;5012491;28;19996;-79
2022/09/04 04:18:14;;;;;;;;;;;;;;;;;;5015121;28;19964;-78
2022/09/04 04:20:40;;;;;;;;;;;;;;;;;;5015007;28;19913;-78
2022/09/04 04:23:05;;;;;;;;;;;;;;;;;;5013601;28;19963;-79
2022/09/04 04:25:30;;;;;;;;;;;;;;;;;;5014804;28;19913;-84
2022/09/04 04:27:56;;;;;;;;;;;;;;;;;;5014587;28;19913;-84
2022/09/04 04:30:22;;;;;;;;;;;;;;;;;;5014711;28;19921;-82
2022/09/04 04:32:47;;;;;;;;;;;;;;;;;;5014504;28;19913;-83
2022/09/04 04:35:12;;;;;;;;;;;;;;;;;;5014615;28;19918;-79
2022/09/04 04:37:38;;;;;;;;;;;;;;;;;;5014379;28;19953;-78
2022/09/04 04:40:03;;;;;;;;;;;;;;;;;;5011032;28;19921;-78
2022/09/04 04:42:29;;;;;;;;;;;;;;;;;;5028219;22;20337;-76
2022/09/04 04:47:38;;;;;;;;;;;;;;;;;;5034054;28;19913;-77
2022/09/04 04:50:05;;;;;;;;;;;;;;;;;;5016574;28;20392;-77
2022/09/04 04:52:30;;;;;;;;;;;;;;;;;;5032664;28;19957;-75
2022/09/04 04:54:56;;;;;;;;;;;;;;;;;;5032746;28;19920;-76
2022/09/04 04:57:22;;;;;;;;;;;;;;;;;;5028890;28;19914;-77
2022/09/04 04:59:47;;;;;;;;;;;;;;;;;;5029356;28;19921;-77
2022/09/04 05:02:13;;;;;;;;;;;;;;;;;;5029271;28;19960;-76
2022/09/04 05:04:39;;;;;;;;;;;;;;;;;;5013784;28;19925;-77
2022/09/04 05:07:04;;;;;;;;;;;;;;;;;;5013993;28;19913;-76
2022/09/04 05:09:30;;;;;;;;;;;;;;;;;;5029200;28;20364;-76
2022/09/04 05:11:56;;;;;;;;;;;;;;;;;;5015602;28;20445;-76
2022/09/04 05:14:22;;;;;;;;;;;;;;;;;;5032250;28;19913;-76
2022/09/04 05:16:47;;;;;;;;;;;;;;;;;;5032550;28;20406;-76
2022/09/04 05:19:12;;;;;;;;;;;;;;;;;;5033937;28;20467;-76
2022/09/04 05:21:38;;;;;;;;;;;;;;;;;;5033457;28;19920;-76
2022/09/04 05:24:03;;;;;;;;;;;;;;;;;;5033351;28;20389;-76
2022/09/04 05:26:29;;;;;;;;;;;;;;;;;;5031038;28;19919;-75
2022/09/04 05:28:55;;;;;;;;;;;;;;;;;;5012380;28;19945;-75
2022/09/04 05:31:20;;;;;;;;;;;;;;;;;;5013599;28;20452;-75
2022/09/04 05:33:46;;;;;;;;;;;;;;;;;;5012066;28;19933;-76
2022/09/04 05:36:11;;;;;;;;;;;;;;;;;;5012319;28;19961;-76
2022/09/04 05:38:36;;;;;;;;;;;;;;;;;;5012234;28;20369;-75
2022/09/04 05:41:01;;;;;;;;;;;;;;;;;;5012104;28;19917;-77
2022/09/04 05:43:27;;;;;;;;;;;;;;;;;;5029508;28;20396;-76
2022/09/04 05:45:52;;;;;;;;;;;;;;;;;;5033031;28;20319;-76
2022/09/04 05:48:18;;;;;;;;;;;;;;;;;;5031821;28;20439;-77
2022/09/04 05:50:43;;;;;;;;;;;;;;;;;;5031909;28;19913;-76
2022/09/04 05:53:08;;;;;;;;;;;;;;;;;;5032749;28;19913;-76
2022/09/04 05:55:34;;;;;;;;;;;;;;;;;;5015406;28;19919;-76
2022/09/04 05:57:59;;;;;;;;;;;;;;;;;;5032795;28;19956;-76
2022/09/04 06:00:24;;;;;;;;;;;;;;;;;;5021356;28;19937;-76
2022/09/04 06:02:50;;;;;;;;;;;;;;;;;;5011665;28;19920;-74
2022/09/04 06:05:20;;;;;;;;;;;;;;;;;;5012944;28;20040;-76
2022/09/04 06:07:47;;;;;;;;;;;;;;;;;;5011158;28;20446;-76
2022/09/04 06:10:12;;;;;;;;;;;;;;;;;;5011627;28;19917;-76
2022/09/04 06:12:37;;;;;;;;;;;;;;;;;;5012648;28;20379;-75
2022/09/04 06:15:03;;;;;;;;;;;;;;;;;;5011516;28;19922;-76
2022/09/04 06:17:28;;;;;;;;;;;;;;;;;;5027874;28;19914;-76
2022/09/04 06:19:54;;;;;;;;;;;;;;;;;;4995271;28;19914;-77
2022/09/04 06:22:19;;;;;;;;;;;;;;;;;;4995270;28;19953;-76
2022/09/04 06:24:44;;;;;;;;;;;;;;;;;;5012473;28;19925;-76
2022/09/04 06:27:10;;;;;;;;;;;;;;;;;;5012632;28;20448;-77
2022/09/04 06:29:35;;;;;;;;;;;;;;;;;;5011727;28;19984;-75
2022/09/04 06:32:03;;;;;;;;;;;;;;;;;;5012373;28;19917;-75
2022/09/04 06:34:28;;;;;;;;;;;;;;;;;;5012354;28;19913;-75
2022/09/04 06:36:53;;;;;;;;;;;;;;;;;;5012857;28;20056;-74
2022/09/04 06:39:19;;;;;;;;;;;;;;;;;;5011754;28;19921;-75
2022/09/04 06:41:44;;;;;;;;;;;;;;;;;;5011475;28;19909;-75
2022/09/04 06:44:13;;;;;;;;;;;;;;;;;;5012083;28;19917;-75
2022/09/04 06:46:38;;;;;;;;;;;;;;;;;;5011357;28;20401;-77
2022/09/04 06:49:04;;;;;;;;;;;;;;;;;;5012546;28;19913;-77
2022/09/04 06:51:29;;;;;;;;;;;;;;;;;;4994886;28;19920;-78
2022/09/04 06:53:55;;;;;;;;;;;;;;;;;;5011354;28;19913;-76
2022/09/04 06:56:20;;;;;;;;;;;;;;;;;;5011225;28;19951;-75
2022/09/04 06:58:46;;;;;;;;;;;;;;;;;;5027782;28;19996;-75
2022/09/04 07:01:11;;;;;;;;;;;;;;;;;;5011484;28;20025;-77
2022/09/04 07:03:37;;;;;;;;;;;;;;;;;;5010680;28;19940;-76
2022/09/04 07:06:02;;;;;;;;;;;;;;;;;;5012293;28;19920;-77
2022/09/04 07:08:27;;;;;;;;;;;;;;;;;;5012190;28;19910;-78
2022/09/04 07:10:53;;;;;;;;;;;;;;;;;;5027497;28;19914;-77
2022/09/04 07:13:20;;;;;;;;;;;;;;;;;;5012012;28;20361;-77
2022/09/04 07:15:45;;;;;;;;;;;;;;;;;;5010786;28;19914;-76
2022/09/04 07:18:11;;;;;;;;;;;;;;;;;;5010930;28;19914;-76
2022/09/04 07:20:36;;;;;;;;;;;;;;;;;;5010753;28;19913;-77
2022/09/04 07:23:02;;;;;;;;;;;;;;;;;;5012056;28;19913;-76
2022/09/04 07:25:27;;;;;;;;;;;;;;;;;;5012052;28;19917;-75
2022/09/04 07:27:54;;;;;;;;;;;;;;;;;;5011108;28;20387;-75
2022/09/04 07:30:21;;;;;;;;;;;;;;;;;;5010917;28;19953;-75
2022/09/04 07:32:46;;;;;;;;;;;;;;;;;;5026990;28;19920;-76
2022/09/04 07:35:12;;;;;;;;;;;;;;;;;;5012110;28;19917;-75
2022/09/04 07:37:38;;;;;;;;;;;;;;;;;;5027176;28;20009;-75
2022/09/04 07:40:04;;;;;;;;;;;;;;;;;;5012158;28;19914;-75
2022/09/04 07:42:29;;;;;;;;;;;;;;;;;;5025244;28;19913;-76
2022/09/04 07:44:58;;;;;;;;;;;;;;;;;;5030456;28;19921;-76
2022/09/04 07:47:24;;;;;;;;;;;;;;;;;;5030340;28;19980;-75
2022/09/04 07:49:49;;;;;;;;;;;;;;;;;;5032235;28;20008;-78
2022/09/04 07:52:17;;;;;;;;;;;;;;;;;;5033556;28;19909;-77
2022/09/04 07:54:42;;;;;;;;;;;;;;;;;;5017243;28;19923;-76
2022/09/04 07:57:08;;;;;;;;;;;;;;;;;;5035349;28;20377;-77
2022/09/04 07:59:33;;;;;;;;;;;;;;;;;;5024094;28;19953;-76
2022/09/04 08:01:58;;;;;;;;;;;;;;;;;;5015020;28;19914;-76
2022/09/04 08:04:24;;;;;;;;;;;;;;;;;;5015103;28;19925;-77
2022/09/04 08:06:49;;;;;;;;;;;;;;;;;;5014922;28;20320;-78
2022/09/04 08:09:16;;;;;;;;;;;;;;;;;;5014005;28;19914;-76
2022/09/04 08:11:44;;;;;;;;;;;;;;;;;;5013791;28;19914;-76
2022/09/04 08:14:09;;;;;;;;;;;;;;;;;;5013555;28;19945;-75
2022/09/04 08:16:34;;;;;;;;;;;;;;;;;;5013411;28;19914;-76
2022/09/04 08:19:00;;;;;;;;;;;;;;;;;;5015022;28;20392;-78
2022/09/04 08:21:26;;;;;;;;;;;;;;;;;;5014662;28;20421;-78
2022/09/04 08:23:51;;;;;;;;;;;;;;;;;;5013447;28;20277;-76
2022/09/04 08:26:16;;;;;;;;;;;;;;;;;;5014687;28;19936;-77
2022/09/04 08:28:43;;;;;;;;;;;;;;;;;;5013428;28;20020;-77
2022/09/04 08:31:08;;;;;;;;;;;;;;;;;;5014756;28;19913;-77
2022/09/04 08:33:34;;;;;;;;;;;;;;;;;;5013025;28;19920;-75
2022/09/04 08:35:59;;;;;;;;;;;;;;;;;;5013607;28;19921;-76
2022/09/04 08:38:25;;;;;;;;;;;;;;;;;;5014494;28;19913;-76
2022/09/04 08:40:50;;;;;;;;;;;;;;;;;;5014666;28;19914;-77
2022/09/04 08:43:15;;;;;;;;;;;;;;;;;;5014260;28;19917;-77
2022/09/04 08:45:42;;;;;;;;;;;;;;;;;;5014687;28;20396;-77
2022/09/04 08:48:08;;;;;;;;;;;;;;;;;;5019817;28;20016;-74
2022/09/04 08:50:33;;;;;;;;;;;;;;;;;;5032874;28;20000;-77
2022/09/04 08:52:59;;;;;;;;;;;;;;;;;;5032578;28;20364;-76
2022/09/04 08:55:24;;;;;;;;;;;;;;;;;;5032952;28;20012;-77
2022/09/04 08:57:50;;;;;;;;;;;;;;;;;;5034146;28;19920;-78
2022/09/04 09:00:15;;;;;;;;;;;;;;;;;;5032908;28;19919;-77
2022/09/04 09:02:40;;;;;;;;;;;;;;;;;;5031662;28;20352;-77
2022/09/04 09:05:06;;;;;;;;;;;;;;;;;;5020136;28;20380;-75
2022/09/04 09:07:31;;;;;;;;;;;;;;;;;;5029153;28;19928;-77
2022/09/04 09:09:57;;;;;;;;;;;;;;;;;;5013006;28;20395;-76
2022/09/04 09:12:22;;;;;;;;;;;;;;;;;;5012496;28;19922;-76
2022/09/04 09:14:47;;;;;;;;;;;;;;;;;;5012348;28;20429;-77
2022/09/04 09:17:15;;;;;;;;;;;;;;;;;;5012582;28;20388;-77
2022/09/04 09:19:41;;;;;;;;;;;;;;;;;;5012644;28;19944;-77
2022/09/04 09:22:06;;;;;;;;;;;;;;;;;;5021941;28;19909;-78
2022/09/04 09:24:34;;;;;;;;;;;;;;;;;;5033027;28;19917;-78
2022/09/04 09:26:59;;;;;;;;;;;;;;;;;;5033944;28;20422;-85
2022/09/04 09:29:24;;;;;;;;;;;;;;;;;;5017664;28;20291;-82
2022/09/04 09:31:50;;;;;;;;;;;;;;;;;;5021675;28;19913;-87
2022/09/04 09:34:18;;;;;;;;;;;;;;;;;;5021542;28;20016;-84
2022/09/04 09:36:43;;;;;;;;;;;;;;;;;;5004197;28;19920;-87
2022/09/04 09:39:09;;;;;;;;;;;;;;;;;;5021183;28;19913;-85
2022/09/04 09:41:36;;;;;;;;;;;;;;;;;;5035851;28;19913;-87
2022/09/04 09:44:01;;;;;;;;;;;;;;;;;;5034975;28;19940;-86
2022/09/04 09:46:26;;;;;;;;;;;;;;;;;;5003126;28;19917;-88
2022/09/04 09:48:52;;;;;;;;;;;;;;;;;;5018763;28;19924;-86
2022/09/04 09:51:17;;;;;;;;;;;;;;;;;;5018393;28;19971;-87
2022/09/04 09:53:43;;;;;;;;;;;;;;;;;;5018929;28;19932;-87
2022/09/04 09:56:08;;;;;;;;;;;;;;;;;;5033673;28;19935;-85
2022/09/04 09:58:33;;;;;;;;;;;;;;;;;;5015335;28;20331;-84
2022/09/04 10:00:59;;;;;;;;;;;;;;;;;;5014396;28;19967;-85
2022/09/04 10:03:25;;;;;;;;;;;;;;;;;;4996985;28;20288;-85
2022/09/04 10:05:51;;;;;;;;;;;;;;;;;;5012911;28;19914;-86
2022/09/04 10:08:17;;;;;;;;;;;;;;;;;;5014300;28;20417;-86
2022/09/04 10:10:42;;;;;;;;;;;;;;;;;;5028782;28;19971;-86
2022/09/04 10:13:08;;;;;;;;;;;;;;;;;;4997945;28;20316;-85
2022/09/04 10:15:33;;;;;;;;;;;;;;;;;;5012827;28;19913;-86
2022/09/04 10:17:58;;;;;;;;;;;;;;;;;;5012462;28;20420;-85
2022/09/04 10:20:24;;;;;;;;;;;;;;;;;;5013953;28;19932;-85
2022/09/04 10:22:50;;;;;;;;;;;;;;;;;;5029279;28;19921;-86
2022/09/04 10:25:15;;;;;;;;;;;;;;;;;;5012633;28;20052;-85
2022/09/04 10:27:43;;;;;;;;;;;;;;;;;;5045474;28;19952;-85
2022/09/04 10:30:09;;;;;;;;;;;;;;;;;;5026897;28;19932;-85
2022/09/04 10:32:34;;;;;;;;;;;;;;;;;;5015620;28;19917;-84
2022/09/04 10:34:59;;;;;;;;;;;;;;;;;;5015776;28;19917;-86
2022/09/04 10:37:25;;;;;;;;;;;;;;;;;;5033696;28;19936;-85
2022/09/04 10:42:34;;;;;;;;;;;;;;;;;;5032729;28;20000;-84
2022/09/04 10:45:00;;;;;;;;;;;;;;;;;;5035039;28;19972;-84
2022/09/04 10:50:03;;;;;;;;;;;;;;;;;;4954087;28;20393;-83
2022/09/04 10:52:29;;;;;;;;;;;;;;;;;;4973189;28;19968;-83
2022/09/04 10:54:54;;;;;;;;;;;;;;;;;;4955613;28;19962;-82
2022/09/04 10:57:20;;;;;;;;;;;;;;;;;;4955928;28;19937;-82
2022/09/04 10:59:45;;;;;;;;;;;;;;;;;;4956009;28;19922;-83
2022/09/04 11:02:11;;;;;;;;;;;;;;;;;;4939958;28;19914;-83
2022/09/04 11:04:36;;;;;;;;;;;;;;;;;;4939212;28;19926;-82
2022/09/04 11:07:01;;;;;;;;;;;;;;;;;;4956062;28;19914;-82
2022/09/04 11:09:27;;;;;;;;;;;;;;;;;;4973024;28;19918;-84
2022/09/04 11:11:52;;;;;;;;;;;;;;;;;;4956902;28;19949;-83
2022/09/04 11:14:18;;;;;;;;;;;;;;;;;;4972952;28;20270;-83
2022/09/04 11:16:43;;;;;;;;;;;;;;;;;;4956016;28;19914;-83
2022/09/04 11:19:09;;;;;;;;;;;;;;;;;;4942326;28;19919;-83
2022/09/04 11:21:34;;;;;;;;;;;;;;;;;;4936808;29;19955;-82
2022/09/04 11:23:59;;;;;;;;;;;;;;;;;;4952208;28;19919;-83
2022/09/04 11:26:28;;;;;;;;;;;;;;;;;;4956989;28;19915;-83
2022/09/04 11:28:55;;;;;;;;;;;;;;;;;;4957405;28;19962;-82
2022/09/04 11:31:21;;;;;;;;;;;;;;;;;;4957321;28;19921;-82
2022/09/04 11:33:47;;;;;;;;;;;;;;;;;;4955946;29;19911;-83
2022/09/04 11:36:12;;;;;;;;;;;;;;;;;;4956490;28;20009;-84
2022/09/04 11:38:42;;;;;;;;;;;;;;;;;;4955607;28;20457;-83
2022/09/04 11:41:08;;;;;;;;;;;;;;;;;;4956276;28;19914;-85
2022/09/04 11:43:35;;;;;;;;;;;;;;;;;;4957098;28;19915;-83
2022/09/04 11:46:01;;;;;;;;;;;;;;;;;;4939929;29;19922;-84
2022/09/04 11:48:26;;;;;;;;;;;;;;;;;;4939998;29;19919;-83
2022/09/04 11:50:56;;;;;;;;;;;;;;;;;;4957911;28;19922;-83
2022/09/04 11:53:21;;;;;;;;;;;;;;;;;;4940632;29;19919;-83
2022/09/04 11:55:46;;;;;;;;;;;;;;;;;;4940836;29;19921;-84
2022/09/04 11:58:12;;;;;;;;;;;;;;;;;;4957658;28;19910;-84
2022/09/04 12:00:37;;;;;;;;;;;;;;;;;;4940725;28;19918;-83
2022/09/04 12:03:03;;;;;;;;;;;;;;;;;;4957292;29;19915;-84
2022/09/04 12:05:42;;;;;;;;;;;;;;;;;;4940844;29;19918;-85
2022/09/04 12:08:07;;;;;;;;;;;;;;;;;;4962275;28;19914;-84
2022/09/04 12:10:32;;;;;;;;;;;;;;;;;;4978379;28;20008;-86
2022/09/04 12:12:59;;;;;;;;;;;;;;;;;;4965337;28;19976;-82
2022/09/04 12:15:24;;;;;;;;;;;;;;;;;;4958839;28;19972;-82
2022/09/04 12:17:53;;;;;;;;;;;;;;;;;;4975735;28;19957;-81
2022/09/04 12:20:22;;;;;;;;;;;;;;;;;;4958685;28;19921;-80
2022/09/04 12:22:50;;;;;;;;;;;;;;;;;;4942779;28;20369;-80
2022/09/04 12:25:15;;;;;;;;;;;;;;;;;;4950906;28;19922;-80
2022/09/04 12:27:41;;;;;;;;;;;;;;;;;;4956797;28;19921;-81
2022/09/04 12:30:06;;;;;;;;;;;;;;;;;;4942251;29;20036;-81
2022/09/04 12:32:32;;;;;;;;;;;;;;;;;;4943873;29;19915;-80
2022/09/04 12:34:57;;;;;;;;;;;;;;;;;;4963952;29;19938;-80
2022/09/04 12:37:22;;;;;;;;;;;;;;;;;;4959834;28;20422;-81
2022/09/04 12:39:49;;;;;;;;;;;;;;;;;;4961049;28;19937;-80
2022/09/04 12:42:14;;;;;;;;;;;;;;;;;;4971407;28;19921;-81
2022/09/04 12:44:39;;;;;;;;;;;;;;;;;;4985089;28;19981;-81
2022/09/04 12:47:05;;;;;;;;;;;;;;;;;;4982144;28;20340;-81
2022/09/04 12:49:30;;;;;;;;;;;;;;;;;;4977669;28;19925;-81
2022/09/04 12:51:56;;;;;;;;;;;;;;;;;;4978992;28;19918;-82
2022/09/04 12:54:22;;;;;;;;;;;;;;;;;;4979536;28;20369;-81
2022/09/04 12:56:48;;;;;;;;;;;;;;;;;;4961297;28;20001;-82
2022/09/04 12:59:13;;;;;;;;;;;;;;;;;;4941062;29;19922;-80
2022/09/04 13:01:39;;;;;;;;;;;;;;;;;;4924468;29;19918;-80
2022/09/04 13:04:04;;;;;;;;;;;;;;;;;;4956074;28;20386;-81
2022/09/04 13:06:30;;;;;;;;;;;;;;;;;;4956213;28;19915;-80
2022/09/04 13:08:55;;;;;;;;;;;;;;;;;;4938459;29;20417;-80
2022/09/04 13:11:20;;;;;;;;;;;;;;;;;;4955461;28;19922;-81
2022/09/04 13:13:46;;;;;;;;;;;;;;;;;;4955372;29;19994;-80
2022/09/04 13:16:12;;;;;;;;;;;;;;;;;;4968233;28;20297;-82
2022/09/04 13:18:37;;;;;;;;;;;;;;;;;;4957254;28;19921;-80
2022/09/04 13:21:04;;;;;;;;;;;;;;;;;;4957530;28;19921;-81
2022/09/04 13:23:34;;;;;;;;;;;;;;;;;;4956985;28;19956;-80
2022/09/04 13:26:00;;;;;;;;;;;;;;;;;;4969481;28;19915;-82
2022/09/04 13:28:27;;;;;;;;;;;;;;;;;;4973996;28;19911;-81
2022/09/04 13:30:56;;;;;;;;;;;;;;;;;;4974099;28;19921;-81
2022/09/04 13:33:21;;;;;;;;;;;;;;;;;;4940467;28;20274;-82
2022/09/04 13:35:48;;;;;;;;;;;;;;;;;;4957178;28;19921;-82
2022/09/04 13:38:14;;;;;;;;;;;;;;;;;;4974124;28;19956;-82
2022/09/04 13:40:39;;;;;;;;;;;;;;;;;;4956775;28;19918;-82
2022/09/04 13:43:05;;;;;;;;;;;;;;;;;;4973955;28;19921;-81
2022/09/04 13:45:30;;;;;;;;;;;;;;;;;;4956693;28;20293;-81
2022/09/04 13:47:55;;;;;;;;;;;;;;;;;;4973612;28;20325;-79
2022/09/04 13:50:21;;;;;;;;;;;;;;;;;;4956805;28;20006;-82
2022/09/04 13:52:46;;;;;;;;;;;;;;;;;;4973869;28;20282;-81
2022/09/04 13:55:12;;;;;;;;;;;;;;;;;;4956981;28;20401;-82
2022/09/04 13:57:37;;;;;;;;;;;;;;;;;;4956738;28;19921;-81
2022/09/04 14:00:06;;;;;;;;;;;;;;;;;;4956812;28;19921;-82
2022/09/04 14:02:33;;;;;;;;;;;;;;;;;;4974092;28;19914;-81
2022/09/04 14:04:59;;;;;;;;;;;;;;;;;;4973821;28;20485;-81
2022/09/04 14:07:25;;;;;;;;;;;;;;;;;;4973900;28;20099;-81
2022/09/04 14:09:50;;;;;;;;;;;;;;;;;;4956288;28;20433;-80
2022/09/04 14:12:18;;;;;;;;;;;;;;;;;;4956480;28;20389;-81
2022/09/04 14:14:44;;;;;;;;;;;;;;;;;;4973389;28;19914;-82
2022/09/04 14:17:10;;;;;;;;;;;;;;;;;;4973512;28;20332;-83
2022/09/04 14:19:36;;;;;;;;;;;;;;;;;;4973547;28;19925;-81
2022/09/04 14:22:01;;;;;;;;;;;;;;;;;;4973442;28;20309;-80
2022/09/04 14:24:31;;;;;;;;;;;;;;;;;;4956069;28;19929;-82
2022/09/04 14:26:57;;;;;;;;;;;;;;;;;;4973644;28;20009;-82
2022/09/04 14:29:22;;;;;;;;;;;;;;;;;;4938624;28;19954;-82
2022/09/04 14:31:51;;;;;;;;;;;;;;;;;;4953108;29;19940;-83
2022/09/04 14:34:17;;;;;;;;;;;;;;;;;;4953839;28;19926;-81
2022/09/04 14:36:44;;;;;;;;;;;;;;;;;;4954039;28;19914;-82
2022/09/04 14:39:12;;;;;;;;;;;;;;;;;;4953930;28;20370;-81
2022/09/04 14:41:37;;;;;;;;;;;;;;;;;;4954129;29;19933;-83
2022/09/04 14:44:05;;;;;;;;;;;;;;;;;;4955259;28;19922;-81
2022/09/04 14:46:31;;;;;;;;;;;;;;;;;;4952946;28;19965;-79
2022/09/04 14:48:56;;;;;;;;;;;;;;;;;;4937060;29;19919;-81
2022/09/04 14:51:21;;;;;;;;;;;;;;;;;;4952568;28;20425;-82
2022/09/04 14:53:47;;;;;;;;;;;;;;;;;;4952464;29;20366;-81
2022/09/04 14:56:13;;;;;;;;;;;;;;;;;;4952733;28;20354;-81
2022/09/04 14:58:38;;;;;;;;;;;;;;;;;;4954507;28;19920;-80
2022/09/04 15:01:07;;;;;;;;;;;;;;;;;;4962234;28;20004;-82
2022/09/04 15:03:32;;;;;;;;;;;;;;;;;;4961837;29;20018;-80
2022/09/04 15:05:58;;;;;;;;;;;;;;;;;;4960500;29;19962;-81
2022/09/04 15:08:25;;;;;;;;;;;;;;;;;;4960393;28;19919;-82
2022/09/04 15:10:52;;;;;;;;;;;;;;;;;;4959695;29;20010;-81
2022/09/04 15:13:17;;;;;;;;;;;;;;;;;;4958144;29;19915;-81
2022/09/04 15:15:45;;;;;;;;;;;;;;;;;;4957702;28;19915;-81
2022/09/04 15:18:14;;;;;;;;;;;;;;;;;;4958430;28;20017;-82
2022/09/04 15:20:40;;;;;;;;;;;;;;;;;;4956306;28;20302;-81
2022/09/04 15:23:05;;;;;;;;;;;;;;;;;;4957620;29;19925;-83
2022/09/04 15:25:31;;;;;;;;;;;;;;;;;;4957248;28;19918;-81
2022/09/04 15:27:56;;;;;;;;;;;;;;;;;;4957495;28;19961;-80
2022/09/04 15:30:22;;;;;;;;;;;;;;;;;;4957303;28;19997;-81
2022/09/04 15:32:47;;;;;;;;;;;;;;;;;;4940547;29;20250;-81
2022/09/04 15:35:12;;;;;;;;;;;;;;;;;;4959942;29;20267;-81
2022/09/04 15:37:38;;;;;;;;;;;;;;;;;;4941759;28;20404;-79
2022/09/04 15:40:03;;;;;;;;;;;;;;;;;;4959500;28;19914;-82
2022/09/04 15:42:28;;;;;;;;;;;;;;;;;;4960378;28;19914;-78
2022/09/04 15:44:54;;;;;;;;;;;;;;;;;;4942597;29;19965;-79
2022/09/04 15:47:19;;;;;;;;;;;;;;;;;;4947611;28;19920;-78
2022/09/04 15:49:44;;;;;;;;;;;;;;;;;;4979005;28;19925;-80
2022/09/04 15:52:11;;;;;;;;;;;;;;;;;;4959657;28;19944;-82
2022/09/04 15:54:36;;;;;;;;;;;;;;;;;;4980222;28;19921;-79
2022/09/04 15:57:02;;;;;;;;;;;;;;;;;;4981864;28;19914;-78
2022/09/04 15:59:27;;;;;;;;;;;;;;;;;;4981516;28;19958;-80
2022/09/04 16:01:53;;;;;;;;;;;;;;;;;;4980879;28;19915;-81
2022/09/04 16:04:18;;;;;;;;;;;;;;;;;;4974567;28;20294;-80
2022/09/04 16:06:43;;;;;;;;;;;;;;;;;;4962296;29;19919;-79
2022/09/04 16:09:09;;;;;;;;;;;;;;;;;;4964541;28;20393;-82
2022/09/04 16:11:34;;;;;;;;;;;;;;;;;;4942160;29;19919;-82
2022/09/04 16:14:00;;;;;;;;;;;;;;;;;;4956586;29;19921;-81
2022/09/04 16:16:25;;;;;;;;;;;;;;;;;;4939726;29;20236;-81
2022/09/04 16:18:50;;;;;;;;;;;;;;;;;;4939595;28;20049;-82
2022/09/04 16:21:17;;;;;;;;;;;;;;;;;;4940809;28;20053;-81
2022/09/04 16:23:42;;;;;;;;;;;;;;;;;;4975428;28;19914;-81
2022/09/04 16:26:07;;;;;;;;;;;;;;;;;;4958258;28;20494;-80
2022/09/04 16:28:33;;;;;;;;;;;;;;;;;;4981426;28;19922;-81
2022/09/04 16:30:58;;;;;;;;;;;;;;;;;;4963187;28;19914;-81
2022/09/04 16:33:24;;;;;;;;;;;;;;;;;;4968680;28;19937;-79
2022/09/04 16:35:49;;;;;;;;;;;;;;;;;;4962485;28;19960;-78
2022/09/04 16:38:15;;;;;;;;;;;;;;;;;;4976174;28;19914;-79
2022/09/04 16:40:40;;;;;;;;;;;;;;;;;;4945418;29;20405;-79
2022/09/04 16:43:08;;;;;;;;;;;;;;;;;;4955758;29;20382;-79